KMHR/MHR METAR and TAF weather

Enter ICAO airport designator
Station Type Date Time Source
KMHR METAR 2020/10/29 16:45 UTC NOAA

KMHR 291645Z 00000KT 10SM SKC 13/00 A3010


Station Type Date Time Source
KMHR Decoded METAR 2020/10/29 16:45 UTC NOAA

Sacramento, Sacramento Mather Airport, CA, United States (KMHR) 38-33N 121-18W
Oct 29, 2020 - 12:45 PM EDT / 2020.10.29 1645 UTC
Wind: Calm:0
Visibility: 10 mile(s):0
Sky conditions: clear
Temperature: 55 F (13 C)
Dew Point: 32 F (0 C)
Relative Humidity: 40%
Pressure (altimeter): 30.1 in. Hg (1019 hPa)
ob: KMHR 291645Z 00000KT 10SM SKC 13/00 A3010
cycle: 17

Station Type Date Time Source
KMHR TAF 2020/10/29 12:22 UTC NOAA

TAF KMHR 291120Z 2912/3012 VRB04KT P6SM SKC

Example: see airport list